Belle Isle — FOXN — position and weather

sailwx.info

Track history (hours):
 
Tides and Currents Weather Stations Pressure Air Temp Water Temp Dewpoint Dewpoint Depression Visibility Wind Speed Wind Dir Waves Ship Positions

Belle Isle

Last reported at 2016-Jun-23 22:07 UTC. Time now 2016-Jun-28 15:19 UTC.
Position N 47°21' W 003°09'.

Length 16 m.

Type: SAR. MMSI: 227021500.

Date/timePositionNaut miles runAvg speedWind from/ knotsBaromVisibWave heightAir tempDewpointWater temp
2016-Jun-23 22:07N 47°21' W 003°09'5 8.0
2016-Jun-23 21:33N 47°18' W 003°04'5 0.6
2016-Jun-23 14:33N 47°21' W 003°09'6 6.4
2016-Jun-23 13:33N 47°27' W 003°07'  
2016-Jun-19 17:33N 47°19' W 002°60'2120.6
2016-Jun-19 16:31N 47°14' W 002°30'10 9.7
2016-Jun-19 15:31N 47°14' W 002°15'3 2.8
2016-Jun-19 14:29N 47°16' W 002°12'1 0.6
2016-Jun-19 13:33N 47°16' W 002°12'0 0.1
2016-Jun-19 12:31N 47°16' W 002°12'0 0.0
2016-Jun-18 21:11N 47°16' W 002°12'0 0.3
2016-Jun-18 20:33N 47°17' W 002°12'0 0.0
2016-Jun-18 15:13N 47°16' W 002°12'0 0.0
2016-Jun-18 10:33N 47°16' W 002°12'4 3.2
2016-Jun-18 09:18N 47°13' W 002°16'1215.4
2016-Jun-18 08:31N 47°14' W 002°33'1515.1
2016-Jun-18 07:33N 47°18' W 002°54'10 0.5
2016-Jun-17 10:33N 47°21' W 003°09'0 0.0
2016-Jun-17 09:33N 47°21' W 003°09'0 0.0
2016-Jun-17 08:33N 47°21' W 003°09'  
2016-Jun-14 14:21N 47°21' W 003°09'0 0.0
2016-Jun-14 08:22N 47°21' W 003°09'  
Track history (hours):
 
Tides and Currents Weather Stations Pressure Air Temp Water Temp Dewpoint Dewpoint Depression Visibility Wind Speed Wind Dir Waves Ship Positions

Belle Isle

Last reported at 2016-Jun-23 22:07 UTC. Time now 2016-Jun-28 15:19 UTC.
Position N 47°21' W 003°09'.

Length 16 m.

Type: SAR. MMSI: 227021500.

Date/timePositionNaut miles runAvg speedWind from/ knotsBaromVisibWave heightAir tempDewpointWater temp
2016-Jun-23 22:07N 47°21' W 003°09'5 8.0
2016-Jun-23 21:33N 47°18' W 003°04'5 0.6
2016-Jun-23 14:33N 47°21' W 003°09'6 6.4
2016-Jun-23 13:33N 47°27' W 003°07'  
2016-Jun-19 17:33N 47°19' W 002°60'2120.6
2016-Jun-19 16:31N 47°14' W 002°30'10 9.7
2016-Jun-19 15:31N 47°14' W 002°15'3 2.8
2016-Jun-19 14:29N 47°16' W 002°12'1 0.6
2016-Jun-19 13:33N 47°16' W 002°12'0 0.1
2016-Jun-19 12:31N 47°16' W 002°12'0 0.0
2016-Jun-18 21:11N 47°16' W 002°12'0 0.3
2016-Jun-18 20:33N 47°17' W 002°12'0 0.0
2016-Jun-18 15:13N 47°16' W 002°12'0 0.0
2016-Jun-18 10:33N 47°16' W 002°12'4 3.2
2016-Jun-18 09:18N 47°13' W 002°16'1215.4
2016-Jun-18 08:31N 47°14' W 002°33'1515.1
2016-Jun-18 07:33N 47°18' W 002°54'10 0.5
2016-Jun-17 10:33N 47°21' W 003°09'0 0.0
2016-Jun-17 09:33N 47°21' W 003°09'0 0.0
2016-Jun-17 08:33N 47°21' W 003°09'  
2016-Jun-14 14:21N 47°21' W 003°09'0 0.0
2016-Jun-14 08:22N 47°21' W 003°09'  

Dump ship's entire track history